createdAt,value
2017-11-16T00:00:06.953Z,9.14
2017-11-16T00:01:07.063Z,9.20
2017-11-16T00:02:59.669Z,9.01
2017-11-16T00:04:00.542Z,8.94
2017-11-16T00:05:54.093Z,8.98
2017-11-16T00:06:54.091Z,8.98
2017-11-16T00:08:46.733Z,9.08
2017-11-16T00:09:47.692Z,8.98
2017-11-16T00:11:41.243Z,8.96
2017-11-16T00:12:42.138Z,8.99
2017-11-16T00:14:32.429Z,8.92
2017-11-16T00:15:34.828Z,8.92
2017-11-16T00:17:27.256Z,8.84
2017-11-16T00:18:28.335Z,8.86
2017-11-16T00:20:21.000Z,8.86
2017-11-16T00:21:21.932Z,8.76
2017-11-16T00:23:15.475Z,8.77
2017-11-16T00:24:15.431Z,8.77
2017-11-16T00:26:08.089Z,8.76
2017-11-16T00:27:09.037Z,8.71
2017-11-16T00:29:02.582Z,8.73
2017-11-16T00:30:02.536Z,8.70
2017-11-16T00:31:54.963Z,8.71
2017-11-16T00:32:56.177Z,8.73
2017-11-16T00:34:49.634Z,8.68
2017-11-16T00:35:49.704Z,8.71
2017-11-16T00:37:42.316Z,8.76
2017-11-16T00:38:43.228Z,8.76
2017-11-16T00:40:35.669Z,8.71
2017-11-16T00:41:37.722Z,8.71
2017-11-16T00:43:30.414Z,8.73
2017-11-16T00:44:30.386Z,8.74
2017-11-16T00:46:22.914Z,8.79
2017-11-16T00:47:23.897Z,8.76
2017-11-16T00:49:17.526Z,8.80
2017-11-16T00:50:17.495Z,8.81
2017-11-16T00:52:09.939Z,8.80
2017-11-16T00:53:11.050Z,8.77
2017-11-16T00:55:04.516Z,8.79
2017-11-16T00:56:04.586Z,8.73
2017-11-16T00:57:57.133Z,8.77
2017-11-16T00:58:58.170Z,8.77
2017-11-16T01:00:51.729Z,8.71
2017-11-16T01:01:51.730Z,8.70
2017-11-16T01:03:44.382Z,8.63
2017-11-16T01:04:45.241Z,8.65
2017-11-16T01:06:38.734Z,8.63
2017-11-16T01:07:38.840Z,8.63
2017-11-16T01:09:32.288Z,8.59
2017-11-16T01:10:32.364Z,8.59
2017-11-16T01:12:24.781Z,8.48
2017-11-16T01:13:25.360Z,8.58
2017-11-16T01:15:18.425Z,8.53
2017-11-16T01:16:19.477Z,8.48
2017-11-16T01:18:12.897Z,8.43
2017-11-16T01:19:13.024Z,8.53
2017-11-16T01:21:07.155Z,8.50
2017-11-16T01:22:06.617Z,8.38
2017-11-16T01:24:00.178Z,8.38
2017-11-16T01:25:00.189Z,8.30
2017-11-16T01:26:52.635Z,8.34
2017-11-16T01:27:53.732Z,8.34
2017-11-16T01:29:47.219Z,8.43
2017-11-16T01:30:47.192Z,8.41
2017-11-16T01:32:39.787Z,8.45
2017-11-16T01:33:40.846Z,8.43
2017-11-16T01:35:34.410Z,8.38
2017-11-16T01:36:33.491Z,8.30
2017-11-16T01:38:27.057Z,8.36
2017-11-16T01:39:27.955Z,8.33
2017-11-16T01:41:21.516Z,8.38
2017-11-16T01:42:20.653Z,8.36
2017-11-16T01:44:13.906Z,8.33
2017-11-16T01:45:15.031Z,8.28
2017-11-16T01:47:08.594Z,8.22
2017-11-16T01:48:07.977Z,8.11
2017-11-16T01:50:01.044Z,8.08
2017-11-16T01:51:01.168Z,8.00
2017-11-16T01:52:55.767Z,7.90
2017-11-16T01:53:55.743Z,7.89
2017-11-16T01:55:48.249Z,7.87
2017-11-16T01:56:48.310Z,7.79
2017-11-16T01:58:42.653Z,7.86
2017-11-16T01:59:42.865Z,7.89
2017-11-16T02:01:35.464Z,7.93
2017-11-16T02:02:36.404Z,7.89
2017-11-16T02:04:29.916Z,8.00
2017-11-16T02:05:27.959Z,8.05
2017-11-16T02:07:22.347Z,8.08
2017-11-16T02:08:23.522Z,8.08
2017-11-16T02:10:17.072Z,8.12
2017-11-16T02:11:17.040Z,8.19
2017-11-16T02:13:09.646Z,8.20
2017-11-16T02:14:09.585Z,8.20
2017-11-16T02:16:04.193Z,8.25
2017-11-16T02:17:04.206Z,8.16
2017-11-16T02:18:56.826Z,8.25
2017-11-16T02:19:57.756Z,8.28
2017-11-16T02:21:51.670Z,8.30
2017-11-16T02:22:51.317Z,8.37
2017-11-16T02:24:43.841Z,8.34
2017-11-16T02:25:44.919Z,8.41
2017-11-16T02:27:38.413Z,8.43
2017-11-16T02:28:38.416Z,8.28
2017-11-16T02:30:30.935Z,8.30
2017-11-16T02:31:31.985Z,8.33
2017-11-16T02:33:24.330Z,8.30
2017-11-16T02:34:25.507Z,8.30
2017-11-16T02:36:18.260Z,8.28
2017-11-16T02:37:19.146Z,8.22
2017-11-16T02:39:12.538Z,8.19
2017-11-16T02:40:12.667Z,8.22
2017-11-16T02:42:05.285Z,8.25
2017-11-16T02:43:05.386Z,8.16
2017-11-16T02:44:59.769Z,8.12
2017-11-16T02:45:59.771Z,8.12
2017-11-16T02:47:51.035Z,8.10
2017-11-16T02:48:53.288Z,8.08
2017-11-16T02:50:46.889Z,8.12
2017-11-16T02:51:46.004Z,8.12
2017-11-16T02:53:39.473Z,8.26
2017-11-16T02:54:40.404Z,8.20
2017-11-16T02:56:33.995Z,8.28
2017-11-16T02:57:33.996Z,8.34
2017-11-16T02:59:26.619Z,8.37
2017-11-16T03:00:26.697Z,8.26
2017-11-16T03:02:21.111Z,8.36
2017-11-16T03:03:21.108Z,8.40
2017-11-16T03:05:20.348Z,8.47
2017-11-16T03:06:14.549Z,8.43
2017-11-16T03:08:08.221Z,8.45
2017-11-16T03:09:08.195Z,8.45
2017-11-16T03:11:00.827Z,8.55
2017-11-16T03:12:01.731Z,8.52
2017-11-16T03:13:55.329Z,8.50
2017-11-16T03:14:55.294Z,8.53
2017-11-16T03:16:47.978Z,8.56
2017-11-16T03:17:47.931Z,8.50
2017-11-16T03:19:42.450Z,8.44
2017-11-16T03:20:42.414Z,8.45
2017-11-16T03:22:33.156Z,8.43
2017-11-16T03:23:36.020Z,8.53
2017-11-16T03:25:29.509Z,8.48
2017-11-16T03:26:28.620Z,8.53
2017-11-16T03:28:22.097Z,8.48
2017-11-16T03:29:23.078Z,8.50
2017-11-16T03:31:16.615Z,8.47
2017-11-16T03:32:16.675Z,8.48
2017-11-16T03:34:07.399Z,8.53
2017-11-16T03:35:10.201Z,8.50
2017-11-16T03:37:03.776Z,8.58
2017-11-16T03:38:03.748Z,8.55
2017-11-16T03:39:56.357Z,8.59
2017-11-16T03:40:57.344Z,8.56
2017-11-16T03:42:50.865Z,8.53
2017-11-16T03:43:50.923Z,8.63
2017-11-16T03:45:43.576Z,8.59
2017-11-16T03:46:44.454Z,8.59
2017-11-16T03:48:38.012Z,8.70
2017-11-16T03:49:38.021Z,8.58
2017-11-16T03:51:32.122Z,8.70
2017-11-16T03:52:29.683Z,8.71
2017-11-16T03:54:25.123Z,8.59
2017-11-16T03:55:25.137Z,8.55
2017-11-16T03:57:17.753Z,8.53
2017-11-16T03:58:18.695Z,8.56
2017-11-16T04:00:12.251Z,8.68
2017-11-16T04:01:12.256Z,8.66
2017-11-16T04:03:04.862Z,8.61
2017-11-16T04:04:05.799Z,8.62
2017-11-16T04:05:59.352Z,8.55
2017-11-16T04:06:59.367Z,8.68
2017-11-16T04:08:52.012Z,8.66
2017-11-16T04:09:52.888Z,8.63
2017-11-16T04:11:46.429Z,8.62
2017-11-16T04:12:46.435Z,8.58
2017-11-16T04:14:39.119Z,8.59
2017-11-16T04:15:40.023Z,8.52
2017-11-16T04:17:33.549Z,8.59
2017-11-16T04:18:34.437Z,8.48
2017-11-16T04:20:26.144Z,8.48
2017-11-16T04:21:27.182Z,8.48
2017-11-16T04:23:20.665Z,8.47
2017-11-16T04:24:20.739Z,8.50
2017-11-16T04:26:13.153Z,8.44
2017-11-16T04:27:13.097Z,8.44
2017-11-16T04:29:07.775Z,8.50
2017-11-16T04:30:07.806Z,8.55
2017-11-16T04:32:00.610Z,8.47
2017-11-16T04:33:01.378Z,8.55
2017-11-16T04:34:54.930Z,8.52
2017-11-16T04:35:54.912Z,8.53
2017-11-16T04:37:47.403Z,8.53
2017-11-16T04:38:48.480Z,8.48
2017-11-16T04:40:42.000Z,8.48
2017-11-16T04:41:42.002Z,8.50
2017-11-16T04:43:34.653Z,8.47
2017-11-16T04:44:32.878Z,8.47
2017-11-16T04:46:29.149Z,8.50
2017-11-16T04:47:30.005Z,8.47
2017-11-16T04:49:21.548Z,8.53
2017-11-16T04:50:22.737Z,8.45
2017-11-16T04:52:15.313Z,8.47
2017-11-16T04:53:16.222Z,8.52
2017-11-16T04:55:09.820Z,8.58
2017-11-16T04:56:09.769Z,8.47
2017-11-16T04:58:02.275Z,8.55
2017-11-16T04:59:03.345Z,8.55
2017-11-16T05:00:56.930Z,8.53
2017-11-16T05:01:54.226Z,8.41
2017-11-16T05:03:49.381Z,8.43
2017-11-16T05:04:50.483Z,8.38
2017-11-16T05:06:44.011Z,8.37
2017-11-16T05:07:44.017Z,8.33
2017-11-16T05:09:36.584Z,8.43
2017-11-16T05:10:37.629Z,8.38
2017-11-16T05:12:31.063Z,8.33
2017-11-16T05:13:31.114Z,8.41
2017-11-16T05:15:23.753Z,8.33
2017-11-16T05:16:24.677Z,8.25
2017-11-16T05:18:18.147Z,8.25
2017-11-16T05:19:18.235Z,8.36
2017-11-16T05:21:10.889Z,8.37
2017-11-16T05:22:11.794Z,8.33
2017-11-16T05:24:05.408Z,8.37
2017-11-16T05:25:05.359Z,8.29
2017-11-16T05:26:57.981Z,8.37
2017-11-16T05:27:58.894Z,8.28
2017-11-16T05:29:51.448Z,8.36
2017-11-16T05:30:52.461Z,8.34
2017-11-16T05:32:45.896Z,8.26
2017-11-16T05:33:46.046Z,8.33
2017-11-16T05:35:38.591Z,8.30
2017-11-16T05:36:39.323Z,8.28
2017-11-16T05:38:33.183Z,8.25
2017-11-16T05:39:33.118Z,8.22
2017-11-16T05:41:25.762Z,8.19
2017-11-16T05:42:26.690Z,8.20
2017-11-16T05:44:20.184Z,8.11
2017-11-16T05:45:20.267Z,8.16
2017-11-16T05:47:14.374Z,8.19
2017-11-16T05:48:13.806Z,8.25
2017-11-16T05:50:07.426Z,8.19
2017-11-16T05:51:07.391Z,8.07
2017-11-16T05:52:59.746Z,8.19
2017-11-16T05:54:00.251Z,8.19
2017-11-16T05:55:54.501Z,8.10
2017-11-16T05:56:54.451Z,8.11
2017-11-16T05:58:47.167Z,8.15
2017-11-16T05:59:48.051Z,8.12
2017-11-16T06:01:41.614Z,8.10
2017-11-16T06:02:41.572Z,8.12
2017-11-16T06:04:34.244Z,8.15
2017-11-16T06:05:35.169Z,8.11
2017-11-16T06:07:27.773Z,8.05
2017-11-16T06:08:28.690Z,8.11
2017-11-16T06:10:22.271Z,8.16
2017-11-16T06:11:22.315Z,8.07
2017-11-16T06:13:14.663Z,8.08
2017-11-16T06:14:15.834Z,7.95
2017-11-16T06:16:09.417Z,7.92
2017-11-16T06:17:09.359Z,8.04
2017-11-16T06:19:02.597Z,8.00
2017-11-16T06:20:02.963Z,8.04
2017-11-16T06:21:56.513Z,8.07
2017-11-16T06:22:56.510Z,7.92
2017-11-16T06:24:47.650Z,8.04
2017-11-16T06:25:50.089Z,7.98
2017-11-16T06:27:43.553Z,8.05
2017-11-16T06:28:43.590Z,7.90
2017-11-16T06:30:36.152Z,8.11
2017-11-16T06:31:37.152Z,7.98
2017-11-16T06:33:30.704Z,8.02
2017-11-16T06:34:30.709Z,7.95
2017-11-16T06:36:23.392Z,8.10
2017-11-16T06:37:24.262Z,8.00
2017-11-16T06:39:16.833Z,8.05
2017-11-16T06:40:17.850Z,7.95
2017-11-16T06:42:11.416Z,8.00
2017-11-16T06:43:11.420Z,8.00
2017-11-16T06:45:03.841Z,8.05
2017-11-16T06:46:04.934Z,8.00
2017-11-16T06:47:58.533Z,7.92
2017-11-16T06:48:58.492Z,8.00
2017-11-16T06:50:51.133Z,7.90
2017-11-16T06:51:52.093Z,7.98
2017-11-16T06:53:45.612Z,7.97
2017-11-16T06:54:45.653Z,7.98
2017-11-16T06:56:38.270Z,7.89
2017-11-16T06:57:39.227Z,7.97
2017-11-16T06:59:32.731Z,8.04
2017-11-16T07:00:32.766Z,7.97
2017-11-16T07:02:25.405Z,7.98
2017-11-16T07:03:26.261Z,8.00
2017-11-16T07:05:19.839Z,8.00
2017-11-16T07:06:19.878Z,7.95
2017-11-16T07:08:12.548Z,7.98
2017-11-16T07:09:13.416Z,8.04
2017-11-16T07:11:06.781Z,8.01
2017-11-16T07:12:06.957Z,8.00
2017-11-16T07:13:59.605Z,8.07
2017-11-16T07:15:00.509Z,7.95
2017-11-16T07:16:54.096Z,8.02
2017-11-16T07:17:54.068Z,8.00
2017-11-16T07:19:51.856Z,7.93
2017-11-16T07:20:47.607Z,7.98
2017-11-16T07:22:45.183Z,7.95
2017-11-16T07:23:41.165Z,7.95
2017-11-16T07:25:33.842Z,8.05
2017-11-16T07:26:34.729Z,7.93
2017-11-16T07:28:28.816Z,8.00
2017-11-16T07:29:28.319Z,7.98
2017-11-16T07:31:22.443Z,7.92
2017-11-16T07:32:21.829Z,8.04
2017-11-16T07:34:12.497Z,7.95
2017-11-16T07:35:15.412Z,7.93
2017-11-16T07:37:08.090Z,8.00
2017-11-16T07:38:08.994Z,8.02
2017-11-16T07:40:01.496Z,8.00
2017-11-16T07:41:00.546Z,8.02
2017-11-16T07:42:55.099Z,8.05
2017-11-16T07:43:56.106Z,8.15
2017-11-16T07:45:49.679Z,8.18
2017-11-16T07:46:49.636Z,8.23
2017-11-16T07:48:42.282Z,8.19
2017-11-16T07:49:43.225Z,8.19
2017-11-16T07:51:36.762Z,8.26
2017-11-16T07:52:36.787Z,8.20
2017-11-16T07:54:29.344Z,8.25
2017-11-16T07:55:30.305Z,8.30
2017-11-16T07:57:23.852Z,8.22
2017-11-16T07:58:23.058Z,8.28
2017-11-16T08:00:16.336Z,8.29
2017-11-16T08:01:17.407Z,8.28
2017-11-16T08:03:10.805Z,8.30
2017-11-16T08:04:10.952Z,8.33
2017-11-16T08:06:03.424Z,8.36
2017-11-16T08:07:04.555Z,8.33
2017-11-16T08:08:58.123Z,8.33
2017-11-16T08:09:58.116Z,8.30
2017-11-16T08:11:50.610Z,8.40
2017-11-16T08:12:51.699Z,8.41
2017-11-16T08:14:45.192Z,8.41
2017-11-16T08:15:43.212Z,8.41
2017-11-16T08:17:37.298Z,8.40
2017-11-16T08:18:38.796Z,8.33
2017-11-16T08:20:32.083Z,8.34
2017-11-16T08:21:32.341Z,8.37
2017-11-16T08:23:25.910Z,8.44
2017-11-16T08:24:25.968Z,8.40
2017-11-16T08:26:18.466Z,8.43
2017-11-16T08:27:19.451Z,8.45
2017-11-16T08:29:12.984Z,8.44
2017-11-16T08:30:13.026Z,8.34
2017-11-16T08:32:04.328Z,8.22
2017-11-16T08:33:05.770Z,8.28
2017-11-16T08:35:00.029Z,8.29
2017-11-16T08:36:00.140Z,8.26
2017-11-16T08:37:51.658Z,8.26
2017-11-16T08:38:53.727Z,8.23
2017-11-16T08:40:45.277Z,8.28
2017-11-16T08:41:47.263Z,8.28
2017-11-16T08:43:38.944Z,8.19
2017-11-16T08:44:40.814Z,8.20
2017-11-16T08:46:31.507Z,8.22
2017-11-16T08:47:34.327Z,8.23
2017-11-16T08:49:27.884Z,8.25
2017-11-16T08:50:27.895Z,8.25
2017-11-16T08:52:20.536Z,8.29
2017-11-16T08:53:21.487Z,8.28
2017-11-16T08:55:15.038Z,8.30
2017-11-16T08:56:14.997Z,8.33
2017-11-16T08:58:07.572Z,8.30
2017-11-16T08:59:08.595Z,8.20
2017-11-16T09:01:00.353Z,8.26
2017-11-16T09:02:02.122Z,8.30
2017-11-16T09:03:53.836Z,8.36
2017-11-16T09:04:55.674Z,8.30
2017-11-16T09:06:49.245Z,8.40
2017-11-16T09:07:49.233Z,8.38
2017-11-16T09:09:43.396Z,8.47
2017-11-16T09:10:41.572Z,8.55
2017-11-16T09:12:33.749Z,8.44
2017-11-16T09:13:36.605Z,8.47
2017-11-16T09:15:28.704Z,8.50
2017-11-16T09:16:30.402Z,8.53
2017-11-16T09:18:23.809Z,8.59
2017-11-16T09:21:10.883Z,8.55
2017-11-16T09:22:58.751Z,8.45
2017-11-16T09:25:03.708Z,8.52
2017-11-16T09:26:03.726Z,8.59
2017-11-16T09:27:56.340Z,8.55
2017-11-16T09:28:57.294Z,8.61
2017-11-16T09:30:50.839Z,8.73
2017-11-16T09:31:50.837Z,8.76
2017-11-16T09:33:43.359Z,8.87
2017-11-16T09:34:44.399Z,8.87
2017-11-16T09:36:37.889Z,9.01
2017-11-16T09:37:37.958Z,9.05
2017-11-16T09:39:30.561Z,9.08
2017-11-16T09:40:29.893Z,9.08
2017-11-16T09:42:22.327Z,9.17
2017-11-16T09:43:25.086Z,9.17
2017-11-16T09:45:17.589Z,9.14
2017-11-16T09:46:18.634Z,9.21
2017-11-16T09:48:12.188Z,9.17
2017-11-16T09:49:12.193Z,9.21
2017-11-16T09:51:04.801Z,9.33
2017-11-16T09:52:05.745Z,9.43
2017-11-16T09:54:00.224Z,9.48
2017-11-16T09:54:59.307Z,9.57
2017-11-16T09:56:51.907Z,9.64
2017-11-16T09:57:52.327Z,9.72
2017-11-16T09:59:44.461Z,9.69
2017-11-16T10:00:46.386Z,9.72
2017-11-16T10:02:38.986Z,9.66
2017-11-16T10:03:39.975Z,9.83
2017-11-16T10:05:33.533Z,9.56
2017-11-16T10:06:33.509Z,9.50
2017-11-16T10:08:26.040Z,9.64
2017-11-16T10:09:27.142Z,9.71
2017-11-16T10:11:20.664Z,9.74
2017-11-16T10:12:20.626Z,9.87
2017-11-16T10:14:12.210Z,9.96
2017-11-16T10:15:11.510Z,9.93
2017-11-16T10:17:07.835Z,9.94
2017-11-16T10:18:07.786Z,9.96
2017-11-16T10:19:58.513Z,9.96
2017-11-16T10:21:00.492Z,10.07
2017-11-16T10:22:54.864Z,10.05
2017-11-16T10:23:54.860Z,10.09
2017-11-16T10:25:45.678Z,10.25
2017-11-16T10:26:48.433Z,10.32
2017-11-16T10:28:42.018Z,10.51
2017-11-16T10:29:42.017Z,10.55
2017-11-16T10:31:34.552Z,10.71
2017-11-16T10:32:35.531Z,10.66
2017-11-16T10:34:29.100Z,10.63
2017-11-16T10:35:29.123Z,10.59
2017-11-16T10:37:20.992Z,10.78
2017-11-16T10:38:22.657Z,10.81
2017-11-16T10:40:16.217Z,10.92
2017-11-16T10:41:16.217Z,11.10
2017-11-16T10:43:08.892Z,11.37
2017-11-16T10:44:09.800Z,11.54
2017-11-16T10:46:03.332Z,11.73
2017-11-16T10:47:03.376Z,11.70
2017-11-16T10:48:56.039Z,11.88
2017-11-16T10:49:54.888Z,11.86
2017-11-16T10:51:50.359Z,11.73
2017-11-16T10:52:50.490Z,11.75
2017-11-16T10:54:43.133Z,11.70
2017-11-16T10:55:44.061Z,11.75
2017-11-16T10:57:37.626Z,11.67
2017-11-16T10:58:37.582Z,11.64
2017-11-16T11:00:28.308Z,11.42
2017-11-16T11:01:31.165Z,11.40
2017-11-16T11:03:24.746Z,11.22
2017-11-16T11:04:24.747Z,11.18
2017-11-16T11:06:17.280Z,10.94
2017-11-16T11:07:18.251Z,10.85
2017-11-16T11:09:22.894Z,10.67
2017-11-16T11:10:11.819Z,10.55
2017-11-16T11:12:05.343Z,10.29
2017-11-16T11:13:05.387Z,10.32
2017-11-16T11:14:58.073Z,10.25
2017-11-16T11:15:58.999Z,10.15
2017-11-16T11:17:52.546Z,10.25
2017-11-16T11:18:52.528Z,10.34
2017-11-16T11:20:45.157Z,10.25
2017-11-16T11:21:46.143Z,10.30
2017-11-16T11:23:39.423Z,10.14
2017-11-16T11:24:39.637Z,9.94
2017-11-16T11:26:32.116Z,9.72
2017-11-16T11:27:33.186Z,9.86
2017-11-16T11:29:26.692Z,9.84
2017-11-16T11:30:26.751Z,9.96
2017-11-16T11:32:19.404Z,10.01
2017-11-16T11:33:20.350Z,9.94
2017-11-16T11:35:13.706Z,9.86
2017-11-16T11:36:13.909Z,9.83
2017-11-16T11:38:05.759Z,9.90
2017-11-16T11:39:07.775Z,9.93
2017-11-16T11:41:00.125Z,9.93
2017-11-16T11:42:01.511Z,9.90
2017-11-16T11:43:57.480Z,9.86
2017-11-16T11:44:54.877Z,9.90
2017-11-16T11:46:47.053Z,9.84
2017-11-16T11:49:01.106Z,9.94
2017-11-16T11:49:59.742Z,9.94
2017-11-16T11:52:10.768Z,9.96
2017-11-16T11:52:55.492Z,9.97
2017-11-16T11:54:48.240Z,9.97
2017-11-16T12:00:23.543Z,9.94
2017-11-16T12:01:07.761Z,9.96
2017-11-16T12:04:51.981Z,10.07
2017-11-16T12:06:25.057Z,10.07
2017-11-16T12:33:08.968Z,9.97
2017-11-16T12:34:11.310Z,9.93
2017-11-16T12:36:04.904Z,10.05
2017-11-16T12:37:04.876Z,10.01
2017-11-16T12:38:57.534Z,10.02
2017-11-16T12:39:58.460Z,10.07
2017-11-16T12:41:51.978Z,9.99
2017-11-16T12:42:52.023Z,10.04
2017-11-16T12:44:44.643Z,9.90
2017-11-16T12:45:45.536Z,9.93
2017-11-16T12:47:39.150Z,9.93
2017-11-16T12:48:39.097Z,9.87
2017-11-16T12:50:29.841Z,9.91
2017-11-16T12:51:32.650Z,9.89
2017-11-16T12:53:36.998Z,9.94
2017-11-16T12:54:26.255Z,9.99
2017-11-16T12:56:18.898Z,9.97
2017-11-16T12:57:19.772Z,10.04
2017-11-16T12:59:13.323Z,10.04
2017-11-16T13:00:13.481Z,9.99
2017-11-16T13:02:06.420Z,10.07
2017-11-16T13:03:04.937Z,10.07
2017-11-16T13:05:00.383Z,10.22
2017-11-16T13:06:00.448Z,10.14
2017-11-16T13:07:53.009Z,10.20
2017-11-16T13:08:54.050Z,10.09
2017-11-16T13:10:47.695Z,10.14
2017-11-16T13:11:47.642Z,10.12
2017-11-16T13:13:40.230Z,9.97
2017-11-16T13:14:41.180Z,10.17
2017-11-16T13:16:34.615Z,10.20
2017-11-16T13:17:34.676Z,10.20
2017-11-16T13:19:27.181Z,10.14
2017-11-16T13:20:28.274Z,10.11
2017-11-16T13:22:21.807Z,10.04
2017-11-16T13:23:21.838Z,10.02
2017-11-16T13:25:14.988Z,9.91
2017-11-16T13:26:15.359Z,9.87
2017-11-16T13:28:08.913Z,9.89
2017-11-16T13:29:08.979Z,9.94
2017-11-16T13:31:02.366Z,9.87
2017-11-16T13:32:02.888Z,9.93
2017-11-16T13:33:56.073Z,9.89
2017-11-16T13:34:56.180Z,9.84
2017-11-16T13:36:48.586Z,9.83
2017-11-16T13:37:49.626Z,9.93
2017-11-16T13:39:43.070Z,9.90
2017-11-16T13:40:43.200Z,9.94
2017-11-16T13:42:35.799Z,9.97
2017-11-16T13:43:36.709Z,9.87
2017-11-16T13:45:30.149Z,9.94
2017-11-16T13:46:30.271Z,10.08
2017-11-16T13:48:22.731Z,10.09
2017-11-16T13:49:23.869Z,10.14
2017-11-16T13:51:17.449Z,10.12
2017-11-16T13:52:17.430Z,10.11
2017-11-16T13:54:10.028Z,10.14
2017-11-16T13:55:10.987Z,10.09
2017-11-16T13:57:04.542Z,10.14
2017-11-16T13:58:04.570Z,10.14
2017-11-16T13:59:57.024Z,10.14
2017-11-16T14:00:58.125Z,10.11
2017-11-16T14:02:51.385Z,10.09
2017-11-16T14:03:51.704Z,10.14
2017-11-16T14:05:44.180Z,10.08
2017-11-16T14:06:45.222Z,10.14
2017-11-16T14:08:38.587Z,10.18
2017-11-16T14:09:38.823Z,10.23
2017-11-16T14:11:31.140Z,10.14
2017-11-16T14:12:32.320Z,10.11
2017-11-16T14:14:25.929Z,10.17
2017-11-16T14:15:24.788Z,10.08
2017-11-16T14:17:18.548Z,10.05
2017-11-16T14:18:19.489Z,10.08
2017-11-16T14:20:12.998Z,10.05
2017-11-16T14:21:13.101Z,9.94
2017-11-16T14:23:05.672Z,9.93
2017-11-16T14:24:06.729Z,9.94
2017-11-16T14:25:59.198Z,9.91
2017-11-16T14:27:00.252Z,9.89
2017-11-16T14:29:09.543Z,9.83
2017-11-16T14:29:53.680Z,9.99
2017-11-16T14:31:47.205Z,9.96
2017-11-16T14:32:44.545Z,9.86
2017-11-16T14:34:41.384Z,9.84
2017-11-16T14:36:54.010Z,9.86
2017-11-16T14:37:54.204Z,9.91
2017-11-16T14:39:46.819Z,9.84
2017-11-16T14:40:47.771Z,9.84
2017-11-16T14:42:38.387Z,9.90
2017-11-16T14:43:41.349Z,9.87
2017-11-16T14:45:34.080Z,9.90
2017-11-16T14:46:34.871Z,9.89
2017-11-16T14:48:27.490Z,9.89
2017-11-16T14:49:28.964Z,9.94
2017-11-16T14:51:21.950Z,9.83
2017-11-16T14:52:21.994Z,9.83
2017-11-16T14:54:14.527Z,9.83
2017-11-16T14:55:14.171Z,9.75
2017-11-16T14:57:09.075Z,9.75
2017-11-16T14:58:09.068Z,9.68
2017-11-16T15:00:01.748Z,9.74
2017-11-16T15:01:02.677Z,9.69
2017-11-16T15:03:28.775Z,9.65
2017-11-16T15:03:56.230Z,9.68
2017-11-16T15:05:50.684Z,9.71
2017-11-16T15:06:49.786Z,9.68
2017-11-16T15:08:42.385Z,9.64
2017-11-16T15:09:43.338Z,9.64
2017-11-16T15:11:35.868Z,9.60
2017-11-16T15:12:36.904Z,9.56
2017-11-16T15:14:29.374Z,9.60
2017-11-16T15:16:44.627Z,9.61
2017-11-16T15:17:43.829Z,9.56
2017-11-16T15:19:36.432Z,9.56
2017-11-16T15:20:37.411Z,9.50
2017-11-16T15:22:29.401Z,9.56
2017-11-16T15:23:30.932Z,9.57
2017-11-16T15:25:23.548Z,9.47
2017-11-16T15:26:24.488Z,9.54
2017-11-16T15:28:18.067Z,9.60
2017-11-16T15:29:18.127Z,9.50
2017-11-16T15:31:10.444Z,9.53
2017-11-16T15:32:11.646Z,9.54
2017-11-16T15:34:05.032Z,9.61
2017-11-16T15:35:05.211Z,9.58
2017-11-16T15:36:57.883Z,9.58
2017-11-16T15:37:58.724Z,9.43
2017-11-16T15:39:52.326Z,9.54
2017-11-16T15:40:51.900Z,9.54
2017-11-16T15:42:44.941Z,9.50
2017-11-16T15:43:45.843Z,9.53
2017-11-16T15:45:39.413Z,9.54
2017-11-16T15:46:39.422Z,9.53
2017-11-16T15:48:31.897Z,9.48
2017-11-16T15:49:33.006Z,9.48
2017-11-16T15:51:25.567Z,9.47
2017-11-16T15:52:26.518Z,9.53
2017-11-16T15:54:20.112Z,9.46
2017-11-16T15:55:20.089Z,9.50
2017-11-16T15:57:12.766Z,9.46
2017-11-16T15:58:13.674Z,9.47
2017-11-16T16:00:07.317Z,9.51
2017-11-16T16:01:07.187Z,9.47
2017-11-16T16:02:59.875Z,9.51
2017-11-16T16:04:00.795Z,9.46
2017-11-16T16:05:54.341Z,9.50
2017-11-16T16:06:54.305Z,9.40
2017-11-16T16:08:47.063Z,9.42
2017-11-16T16:09:47.069Z,9.46
2017-11-16T16:11:41.461Z,9.46
2017-11-16T16:12:41.415Z,9.43
2017-11-16T16:14:34.423Z,9.48
2017-11-16T16:16:48.385Z,9.43
2017-11-16T16:17:48.385Z,9.36
2017-11-16T16:20:04.239Z,9.42
2017-11-16T16:20:41.989Z,9.35
2017-11-16T16:22:33.601Z,9.42
2017-11-16T16:23:35.499Z,9.32
2017-11-16T16:25:29.056Z,9.36
2017-11-16T16:26:29.073Z,9.40
2017-11-16T16:28:21.701Z,9.36
2017-11-16T16:29:22.652Z,9.33
2017-11-16T16:31:16.158Z,9.31
2017-11-16T16:32:16.159Z,9.33
2017-11-16T16:34:08.771Z,9.33
2017-11-16T16:35:09.611Z,9.36
2017-11-16T16:37:03.307Z,9.36
2017-11-16T16:38:03.332Z,9.40
2017-11-16T16:39:56.198Z,9.33
2017-11-16T16:40:56.861Z,9.31
2017-11-16T16:42:50.358Z,9.31
2017-11-16T16:43:50.395Z,9.38
2017-11-16T16:45:43.049Z,9.38
2017-11-16T16:46:44.013Z,9.29
2017-11-16T16:48:50.271Z,9.31
2017-11-16T16:49:37.531Z,9.35
2017-11-16T16:51:30.052Z,9.32
2017-11-16T16:52:30.479Z,9.35
2017-11-16T16:54:24.679Z,9.35
2017-11-16T16:55:24.640Z,9.33
2017-11-16T16:57:17.282Z,9.33
2017-11-16T16:58:18.233Z,9.32
2017-11-16T17:00:11.748Z,9.33
2017-11-16T17:01:11.777Z,9.29
2017-11-16T17:03:06.045Z,9.29
2017-11-16T17:04:05.302Z,9.26
2017-11-16T17:05:58.014Z,9.23
2017-11-16T17:06:58.861Z,9.36
2017-11-16T17:08:52.461Z,9.29
2017-11-16T17:09:50.889Z,9.29
2017-11-16T17:11:45.164Z,9.24
2017-11-16T17:12:45.964Z,9.26
2017-11-16T17:14:38.911Z,9.26
2017-11-16T17:15:39.567Z,9.31
2017-11-16T17:17:32.179Z,9.26
2017-11-16T17:18:33.136Z,9.24
2017-11-16T17:20:26.840Z,9.21
2017-11-16T17:21:27.565Z,9.21
2017-11-16T17:23:19.282Z,9.24
2017-11-16T17:24:20.243Z,9.24
2017-11-16T17:26:13.760Z,9.26
2017-11-16T17:27:11.160Z,9.28
2017-11-16T17:29:06.432Z,9.35
2017-11-16T17:30:07.357Z,9.29
2017-11-16T17:32:00.951Z,9.29
2017-11-16T17:33:00.905Z,9.35
2017-11-16T17:34:53.486Z,9.28
2017-11-16T17:35:54.437Z,9.38
2017-11-16T17:37:48.018Z,9.33
2017-11-16T17:38:47.980Z,9.31
2017-11-16T17:40:40.499Z,9.32
2017-11-16T17:41:41.584Z,9.31
2017-11-16T17:43:35.143Z,9.29
2017-11-16T17:44:32.428Z,9.24
2017-11-16T17:46:27.790Z,9.15
2017-11-16T17:47:28.646Z,9.15
2017-11-16T17:49:22.213Z,9.11
2017-11-16T17:50:22.220Z,9.01
2017-11-16T17:52:14.876Z,9.10
2017-11-16T17:53:15.814Z,9.01
2017-11-16T17:55:09.337Z,9.10
2017-11-16T17:56:09.377Z,8.95
2017-11-16T17:58:03.522Z,8.92
2017-11-16T17:59:03.072Z,9.05
2017-11-16T18:00:56.497Z,9.05
2017-11-16T18:01:54.445Z,9.14
2017-11-16T18:03:47.937Z,9.05
2017-11-16T18:04:50.014Z,9.18
2017-11-16T18:06:42.644Z,9.15
2017-11-16T18:07:43.554Z,9.18
2017-11-16T18:09:36.347Z,9.14
2017-11-16T18:10:37.120Z,9.13
2017-11-16T18:12:30.712Z,9.23
2017-11-16T18:13:30.680Z,9.21
2017-11-16T18:15:21.944Z,9.24
2017-11-16T18:16:24.295Z,9.23
2017-11-16T18:18:16.879Z,9.29
2017-11-16T18:19:17.813Z,9.36
2017-11-16T18:21:10.402Z,9.28
2017-11-16T18:22:11.391Z,9.28
2017-11-16T18:24:04.698Z,9.31
2017-11-16T18:25:04.953Z,9.31
2017-11-16T18:26:57.587Z,9.35
2017-11-16T18:27:58.476Z,9.32
2017-11-16T18:29:52.130Z,9.33
2017-11-16T18:30:52.055Z,9.32
2017-11-16T18:32:44.850Z,9.33
2017-11-16T18:33:45.608Z,9.33
2017-11-16T18:35:39.085Z,9.31
2017-11-16T18:36:38.945Z,9.31
2017-11-16T18:38:31.871Z,9.32
2017-11-16T18:39:32.704Z,9.35
2017-11-16T18:41:26.261Z,9.33
2017-11-16T18:42:26.267Z,9.33
2017-11-16T18:44:18.913Z,9.36
2017-11-16T18:45:19.852Z,9.31
2017-11-16T18:47:13.419Z,9.38
2017-11-16T18:48:13.378Z,9.38
2017-11-16T18:50:06.364Z,9.35
2017-11-16T18:51:06.942Z,9.35
2017-11-16T18:53:00.494Z,9.33
2017-11-16T18:54:00.563Z,9.36
2017-11-16T18:55:52.971Z,9.32
2017-11-16T18:56:54.096Z,9.36
2017-11-16T18:58:46.565Z,9.32
2017-11-16T18:59:47.768Z,9.36
2017-11-16T19:01:41.158Z,9.35
2017-11-16T19:02:41.199Z,9.35
2017-11-16T19:04:33.788Z,9.32
2017-11-16T19:05:34.707Z,9.31
2017-11-16T19:07:28.254Z,9.33
2017-11-16T19:08:28.286Z,9.33
2017-11-16T19:10:20.746Z,9.31
2017-11-16T19:11:21.828Z,9.31
2017-11-16T19:13:15.331Z,9.33
2017-11-16T19:14:15.412Z,9.28
2017-11-16T19:16:07.895Z,9.33
2017-11-16T19:17:08.993Z,9.20
2017-11-16T19:19:03.122Z,9.28
2017-11-16T19:20:02.503Z,9.21
2017-11-16T19:21:56.096Z,9.32
2017-11-16T19:22:56.089Z,9.28
2017-11-16T19:24:48.699Z,9.28
2017-11-16T19:25:49.653Z,9.24
2017-11-16T19:27:43.173Z,9.29
2017-11-16T19:28:43.218Z,9.23
2017-11-16T19:30:37.389Z,9.20
2017-11-16T19:31:36.732Z,9.23
2017-11-16T19:33:30.285Z,9.29
2017-11-16T19:34:30.081Z,9.21
2017-11-16T19:56:18.126Z,9.14
2017-11-16T19:57:19.135Z,9.15
2017-11-16T19:59:12.740Z,9.20
2017-11-16T20:00:10.722Z,9.14
2017-11-16T20:02:05.305Z,9.11
2017-11-16T20:03:06.264Z,8.98
2017-11-16T20:04:59.829Z,9.02
2017-11-16T20:05:59.824Z,8.94